Terminal Aerodrome Forecast
Issued by NWS Missoula, MT

Home | Current Version | Previous Version | Text Only | Print | Product List | Glossary On
Versions: 1 2 3 4 5 6 7 8 9 10 11 12 13 14 15 16 17 18
952
FTUS45 KMSO 252327
TAFBTM
TAF
KBTM 252327Z 2600/2624 29012KT P6SM VCSH OVC080
     FM260200 34005KT P6SM SCT050
     FM262100 30014G20KT P6SM FEW050=

USA.gov is the U.S. government's official web portal to all federal, state and local government web resources and services.